sensor_id;sensor_type;location;lat;lon;timestamp;pressure;altitude;pressure_sealevel;temperature;humidity
65659;BME280;60181;53.258;6.932;2023-02-22T00:02:38;101743.13;;;14.33;67.16
65659;BME280;60181;53.258;6.932;2023-02-22T00:06:42;101741.20;;;14.33;67.17
65659;BME280;60181;53.258;6.932;2023-02-22T00:10:46;101739.11;;;14.32;67.16
65659;BME280;60181;53.258;6.932;2023-02-22T00:14:50;101736.36;;;14.31;67.22
65659;BME280;60181;53.258;6.932;2023-02-22T00:18:54;101733.37;;;14.29;67.14
65659;BME280;60181;53.258;6.932;2023-02-22T00:22:58;101729.96;;;14.28;67.23
65659;BME280;60181;53.258;6.932;2023-02-22T00:27:02;101726.72;;;14.27;67.24
65659;BME280;60181;53.258;6.932;2023-02-22T00:31:06;101723.39;;;14.25;67.25
65659;BME280;60181;53.258;6.932;2023-02-22T00:35:10;101720.06;;;14.24;67.23
65659;BME280;60181;53.258;6.932;2023-02-22T00:39:14;101716.57;;;14.23;67.26
65659;BME280;60181;53.258;6.932;2023-02-22T00:43:18;101714.06;;;14.23;67.23
65659;BME280;60181;53.258;6.932;2023-02-22T00:47:22;101710.86;;;14.22;67.29
65659;BME280;60181;53.258;6.932;2023-02-22T00:51:26;101708.18;;;14.21;67.22
65659;BME280;60181;53.258;6.932;2023-02-22T00:55:32;101704.32;;;14.22;67.10
65659;BME280;60181;53.258;6.932;2023-02-22T00:59:34;101700.67;;;14.23;67.00
65659;BME280;60181;53.258;6.932;2023-02-22T01:03:38;101696.98;;;14.25;67.24
65659;BME280;60181;53.258;6.932;2023-02-22T01:07:42;101693.26;;;14.27;66.96
65659;BME280;60181;53.258;6.932;2023-02-22T01:11:46;101689.42;;;14.28;67.08
65659;BME280;60181;53.258;6.932;2023-02-22T01:15:50;101685.96;;;14.28;67.13
65659;BME280;60181;53.258;6.932;2023-02-22T01:19:54;101683.39;;;14.28;67.16
65659;BME280;60181;53.258;6.932;2023-02-22T01:23:58;101681.72;;;14.27;67.09
65659;BME280;60181;53.258;6.932;2023-02-22T01:28:03;101679.41;;;14.27;67.12
65659;BME280;60181;53.258;6.932;2023-02-22T01:32:06;101676.28;;;14.26;67.07
65659;BME280;60181;53.258;6.932;2023-02-22T01:36:10;101673.21;;;14.26;67.02
65659;BME280;60181;53.258;6.932;2023-02-22T01:40:16;101669.33;;;14.26;67.08
65659;BME280;60181;53.258;6.932;2023-02-22T01:48:29;101660.40;;;14.25;67.13
65659;BME280;60181;53.258;6.932;2023-02-22T01:52:26;101656.69;;;14.25;67.18
65659;BME280;60181;53.258;6.932;2023-02-22T01:56:30;101654.88;;;14.25;67.32
65659;BME280;60181;53.258;6.932;2023-02-22T02:00:34;101652.21;;;14.24;67.46
65659;BME280;60181;53.258;6.932;2023-02-22T02:04:38;101650.48;;;14.24;67.57
65659;BME280;60181;53.258;6.932;2023-02-22T02:08:56;101648.58;;;14.23;67.63
65659;BME280;60181;53.258;6.932;2023-02-22T02:12:46;101646.33;;;14.22;67.68
65659;BME280;60181;53.258;6.932;2023-02-22T02:16:50;101643.83;;;14.21;67.79
65659;BME280;60181;53.258;6.932;2023-02-22T02:29:28;101637.38;;;14.20;67.56
65659;BME280;60181;53.258;6.932;2023-02-22T02:37:11;101636.72;;;14.20;67.44
65659;BME280;60181;53.258;6.932;2023-02-22T02:41:17;101634.58;;;14.20;67.39
65659;BME280;60181;53.258;6.932;2023-02-22T02:45:20;101632.34;;;14.20;67.38
65659;BME280;60181;53.258;6.932;2023-02-22T02:49:29;101630.31;;;14.22;67.55
65659;BME280;60181;53.258;6.932;2023-02-22T02:53:27;101625.66;;;14.26;66.77
65659;BME280;60181;53.258;6.932;2023-02-22T02:57:30;101621.42;;;14.25;67.26
65659;BME280;60181;53.258;6.932;2023-02-22T03:01:43;101617.77;;;14.24;67.19
65659;BME280;60181;53.258;6.932;2023-02-22T03:18:00;101602.72;;;14.24;67.81
65659;BME280;60181;53.258;6.932;2023-02-22T03:26:00;101595.83;;;14.26;67.03
65659;BME280;60181;53.258;6.932;2023-02-22T03:30:06;101591.05;;;14.23;67.06
65659;BME280;60181;53.258;6.932;2023-02-22T03:34:25;101586.76;;;14.19;66.95
65659;BME280;60181;53.258;6.932;2023-02-22T03:38:10;101583.29;;;14.16;66.84
65659;BME280;60181;53.258;6.932;2023-02-22T03:42:15;101579.28;;;14.13;66.72
65659;BME280;60181;53.258;6.932;2023-02-22T03:46:18;101576.72;;;14.11;66.59
65659;BME280;60181;53.258;6.932;2023-02-22T03:50:24;101572.96;;;14.08;66.44
65659;BME280;60181;53.258;6.932;2023-02-22T03:54:26;101570.19;;;14.05;66.34
65659;BME280;60181;53.258;6.932;2023-02-22T03:58:30;101567.66;;;14.03;66.32
65659;BME280;60181;53.258;6.932;2023-02-22T04:02:34;101564.22;;;14.02;66.18
65659;BME280;60181;53.258;6.932;2023-02-22T04:06:38;101562.55;;;14.00;66.11
65659;BME280;60181;53.258;6.932;2023-02-22T04:10:42;101559.52;;;13.98;66.02
65659;BME280;60181;53.258;6.932;2023-02-22T04:14:46;101557.37;;;13.97;65.95
65659;BME280;60181;53.258;6.932;2023-02-22T04:18:50;101555.53;;;13.96;65.89
65659;BME280;60181;53.258;6.932;2023-02-22T04:22:54;101553.37;;;13.95;65.79
65659;BME280;60181;53.258;6.932;2023-02-22T04:26:58;101550.12;;;13.94;65.85
65659;BME280;60181;53.258;6.932;2023-02-22T04:31:02;101547.34;;;13.93;65.77
65659;BME280;60181;53.258;6.932;2023-02-22T04:35:06;101543.36;;;13.92;65.69
65659;BME280;60181;53.258;6.932;2023-02-22T04:39:10;101539.14;;;13.90;65.69
65659;BME280;60181;53.258;6.932;2023-02-22T04:43:13;101533.84;;;13.89;65.57
65659;BME280;60181;53.258;6.932;2023-02-22T04:47:17;101528.38;;;13.88;65.52
65659;BME280;60181;53.258;6.932;2023-02-22T04:51:22;101524.92;;;13.88;65.43
65659;BME280;60181;53.258;6.932;2023-02-22T04:55:25;101520.47;;;13.91;65.16
65659;BME280;60181;53.258;6.932;2023-02-22T04:59:29;101517.30;;;13.95;64.83
65659;BME280;60181;53.258;6.932;2023-02-22T05:03:36;101514.08;;;13.96;65.03
65659;BME280;60181;53.258;6.932;2023-02-22T05:07:37;101511.33;;;13.94;65.20
65659;BME280;60181;53.258;6.932;2023-02-22T05:11:41;101507.93;;;13.94;65.21
65659;BME280;60181;53.258;6.932;2023-02-22T05:15:45;101505.45;;;13.94;65.11
65659;BME280;60181;53.258;6.932;2023-02-22T05:19:49;101504.63;;;13.93;65.37
65659;BME280;60181;53.258;6.932;2023-02-22T05:23:53;101504.11;;;13.92;65.37
65659;BME280;60181;53.258;6.932;2023-02-22T05:27:59;101503.92;;;13.91;65.39
65659;BME280;60181;53.258;6.932;2023-02-22T05:32:01;101504.14;;;13.90;65.38
65659;BME280;60181;53.258;6.932;2023-02-22T05:36:06;101504.03;;;13.89;65.35
65659;BME280;60181;53.258;6.932;2023-02-22T05:40:10;101503.45;;;13.89;65.24
65659;BME280;60181;53.258;6.932;2023-02-22T05:44:13;101502.55;;;13.89;65.31
65659;BME280;60181;53.258;6.932;2023-02-22T05:48:17;101501.61;;;13.88;65.41
65659;BME280;60181;53.258;6.932;2023-02-22T05:52:21;101500.09;;;13.87;65.45
65659;BME280;60181;53.258;6.932;2023-02-22T05:56:26;101498.86;;;13.86;65.45
65659;BME280;60181;53.258;6.932;2023-02-22T06:00:30;101497.35;;;13.85;65.39
65659;BME280;60181;53.258;6.932;2023-02-22T06:04:34;101495.92;;;13.85;65.39
65659;BME280;60181;53.258;6.932;2023-02-22T06:08:37;101493.78;;;13.84;65.29
65659;BME280;60181;53.258;6.932;2023-02-22T06:12:41;101490.55;;;13.83;65.32
65659;BME280;60181;53.258;6.932;2023-02-22T06:16:50;101487.22;;;13.82;65.31
65659;BME280;60181;53.258;6.932;2023-02-22T06:20:49;101484.39;;;13.82;65.16
65659;BME280;60181;53.258;6.932;2023-02-22T06:24:53;101483.57;;;13.81;65.19
65659;BME280;60181;53.258;6.932;2023-02-22T06:28:57;101482.72;;;13.81;65.17
65659;BME280;60181;53.258;6.932;2023-02-22T06:33:01;101482.31;;;13.80;65.11
65659;BME280;60181;53.258;6.932;2023-02-22T06:37:06;101481.98;;;13.80;65.09
65659;BME280;60181;53.258;6.932;2023-02-22T06:41:09;101481.13;;;13.79;64.91
65659;BME280;60181;53.258;6.932;2023-02-22T06:45:15;101478.82;;;13.79;64.69
65659;BME280;60181;53.258;6.932;2023-02-22T06:49:18;101475.50;;;13.78;64.64
65659;BME280;60181;53.258;6.932;2023-02-22T06:53:21;101473.03;;;13.78;64.34
65659;BME280;60181;53.258;6.932;2023-02-22T06:57:25;101471.62;;;13.78;64.22
65659;BME280;60181;53.258;6.932;2023-02-22T07:01:29;101469.05;;;13.77;64.19
65659;BME280;60181;53.258;6.932;2023-02-22T07:05:33;101466.00;;;13.77;64.09
65659;BME280;60181;53.258;6.932;2023-02-22T07:09:37;101462.80;;;13.76;63.96
65659;BME280;60181;53.258;6.932;2023-02-22T07:13:41;101459.38;;;13.76;63.96
65659;BME280;60181;53.258;6.932;2023-02-22T07:17:45;101457.17;;;13.76;64.08
65659;BME280;60181;53.258;6.932;2023-02-22T07:21:49;101455.35;;;13.75;64.18
65659;BME280;60181;53.258;6.932;2023-02-22T07:25:53;101454.91;;;13.75;64.24
65659;BME280;60181;53.258;6.932;2023-02-22T07:29:57;101454.12;;;13.75;64.19
65659;BME280;60181;53.258;6.932;2023-02-22T07:34:01;101453.63;;;13.75;64.32
65659;BME280;60181;53.258;6.932;2023-02-22T07:38:05;101451.48;;;13.75;64.27
65659;BME280;60181;53.258;6.932;2023-02-22T07:42:09;101449.59;;;13.76;64.27
65659;BME280;60181;53.258;6.932;2023-02-22T07:46:13;101447.03;;;13.75;64.01
65659;BME280;60181;53.258;6.932;2023-02-22T07:50:17;101443.66;;;13.75;63.59
65659;BME280;60181;53.258;6.932;2023-02-22T07:54:22;101441.03;;;13.75;63.67
65659;BME280;60181;53.258;6.932;2023-02-22T07:58:26;101440.12;;;13.75;63.46
65659;BME280;60181;53.258;6.932;2023-02-22T08:02:29;101439.40;;;13.76;63.36
65659;BME280;60181;53.258;6.932;2023-02-22T08:06:33;101439.57;;;13.77;63.28
65659;BME280;60181;53.258;6.932;2023-02-22T08:10:37;101439.35;;;13.78;63.50
65659;BME280;60181;53.258;6.932;2023-02-22T08:14:41;101438.39;;;13.79;63.59
65659;BME280;60181;53.258;6.932;2023-02-22T08:18:45;101437.43;;;13.81;63.71
65659;BME280;60181;53.258;6.932;2023-02-22T08:22:49;101437.66;;;13.83;64.55
65659;BME280;60181;53.258;6.932;2023-02-22T08:26:53;101434.30;;;13.94;63.69
65659;BME280;60181;53.258;6.932;2023-02-22T08:30:57;101430.39;;;14.06;63.08
65659;BME280;60181;53.258;6.932;2023-02-22T08:35:01;101427.44;;;14.17;63.20
65659;BME280;60181;53.258;6.932;2023-02-22T08:39:05;101424.58;;;14.24;63.18
65659;BME280;60181;53.258;6.932;2023-02-22T08:43:09;101420.83;;;14.30;63.20
65659;BME280;60181;53.258;6.932;2023-02-22T08:47:13;101417.33;;;14.35;63.19
65659;BME280;60181;53.258;6.932;2023-02-22T08:51:17;101415.20;;;14.40;63.17
65659;BME280;60181;53.258;6.932;2023-02-22T08:55:22;101413.29;;;14.43;63.19
65659;BME280;60181;53.258;6.932;2023-02-22T08:59:25;101411.72;;;14.47;63.19
65659;BME280;60181;53.258;6.932;2023-02-22T09:03:29;101412.42;;;14.50;63.17
65659;BME280;60181;53.258;6.932;2023-02-22T09:07:33;101410.77;;;14.52;63.13
65659;BME280;60181;53.258;6.932;2023-02-22T09:11:37;101409.57;;;14.55;63.14
65659;BME280;60181;53.258;6.932;2023-02-22T09:15:41;101408.14;;;14.57;63.13
65659;BME280;60181;53.258;6.932;2023-02-22T09:19:45;101406.53;;;14.59;63.13
65659;BME280;60181;53.258;6.932;2023-02-22T09:23:49;101403.75;;;14.61;63.16
65659;BME280;60181;53.258;6.932;2023-02-22T09:27:53;101401.08;;;14.62;63.17
65659;BME280;60181;53.258;6.932;2023-02-22T09:31:57;101398.13;;;14.64;63.16
65659;BME280;60181;53.258;6.932;2023-02-22T09:36:01;101395.79;;;14.66;63.18
65659;BME280;60181;53.258;6.932;2023-02-22T09:40:06;101392.85;;;14.67;63.17
65659;BME280;60181;53.258;6.932;2023-02-22T09:44:19;101389.87;;;14.69;63.18
65659;BME280;60181;53.258;6.932;2023-02-22T09:48:13;101386.35;;;14.71;64.05
65659;BME280;60181;53.258;6.932;2023-02-22T09:52:24;101383.34;;;14.77;63.83
65659;BME280;60181;53.258;6.932;2023-02-22T09:56:21;101380.33;;;14.82;63.84
65659;BME280;60181;53.258;6.932;2023-02-22T10:00:29;101378.78;;;14.88;64.82
65659;BME280;60181;53.258;6.932;2023-02-22T10:04:40;101378.50;;;14.95;65.76
65659;BME280;60181;53.258;6.932;2023-02-22T10:08:33;101377.15;;;14.99;65.79
65659;BME280;60181;53.258;6.932;2023-02-22T10:12:49;101375.20;;;14.99;65.91
65659;BME280;60181;53.258;6.932;2023-02-22T10:24:53;101373.24;;;14.96;65.93
65659;BME280;60181;53.258;6.932;2023-02-22T10:28:55;101371.34;;;14.96;65.81
65659;BME280;60181;53.258;6.932;2023-02-22T10:33:03;101369.59;;;14.95;65.79
65659;BME280;60181;53.258;6.932;2023-02-22T10:37:15;101369.67;;;14.95;65.80
65659;BME280;60181;53.258;6.932;2023-02-22T10:45:26;101368.83;;;14.94;65.55
65659;BME280;60181;53.258;6.932;2023-02-22T10:49:18;101368.41;;;14.94;65.38
65659;BME280;60181;53.258;6.932;2023-02-22T10:53:17;101367.43;;;14.93;65.47
65659;BME280;60181;53.258;6.932;2023-02-22T10:57:22;101366.00;;;14.93;65.43
65659;BME280;60181;53.258;6.932;2023-02-22T11:01:35;101362.84;;;14.92;65.44
65659;BME280;60181;53.258;6.932;2023-02-22T11:05:36;101359.88;;;14.92;65.39
65659;BME280;60181;53.258;6.932;2023-02-22T11:09:46;101357.90;;;14.92;65.33
65659;BME280;60181;53.258;6.932;2023-02-22T11:13:38;101354.66;;;14.91;65.36
65659;BME280;60181;53.258;6.932;2023-02-22T11:17:41;101353.83;;;14.90;65.36
65659;BME280;60181;53.258;6.932;2023-02-22T11:21:46;101350.79;;;14.90;65.32
65659;BME280;60181;53.258;6.932;2023-02-22T11:25:49;101345.26;;;14.90;65.24
65659;BME280;60181;53.258;6.932;2023-02-22T11:29:54;101343.55;;;14.91;65.18
65659;BME280;60181;53.258;6.932;2023-02-22T11:33:58;101341.39;;;14.92;65.06
65659;BME280;60181;53.258;6.932;2023-02-22T11:38:11;101339.29;;;14.94;65.01
65659;BME280;60181;53.258;6.932;2023-02-22T11:42:24;101334.53;;;14.95;64.94
65659;BME280;60181;53.258;6.932;2023-02-22T11:46:11;101328.80;;;14.97;64.95
65659;BME280;60181;53.258;6.932;2023-02-22T11:50:18;101324.86;;;14.98;64.86
65659;BME280;60181;53.258;6.932;2023-02-22T11:58:25;101318.06;;;15.02;64.72
65659;BME280;60181;53.258;6.932;2023-02-22T12:06:32;101311.22;;;15.06;64.65
65659;BME280;60181;53.258;6.932;2023-02-22T12:14:40;101305.17;;;15.09;64.64
65659;BME280;60181;53.258;6.932;2023-02-22T12:18:53;101301.31;;;15.11;64.66
65659;BME280;60181;53.258;6.932;2023-02-22T12:22:54;101298.60;;;15.11;64.71
65659;BME280;60181;53.258;6.932;2023-02-22T12:26:50;101294.55;;;15.11;64.78
65659;BME280;60181;53.258;6.932;2023-02-22T12:31:01;101290.59;;;15.10;64.85
65659;BME280;60181;53.258;6.932;2023-02-22T12:34:58;101286.19;;;15.12;65.23
65659;BME280;60181;53.258;6.932;2023-02-22T12:39:23;101278.94;;;15.14;65.11
65659;BME280;60181;53.258;6.932;2023-02-22T12:43:18;101273.91;;;15.14;65.08
65659;BME280;60181;53.258;6.932;2023-02-22T12:47:13;101271.48;;;15.13;65.19
65659;BME280;60181;53.258;6.932;2023-02-22T12:55:22;101268.81;;;15.10;65.24
65659;BME280;60181;53.258;6.932;2023-02-22T12:59:24;101269.12;;;15.09;65.23
65659;BME280;60181;53.258;6.932;2023-02-22T13:03:41;101268.69;;;15.08;65.24
65659;BME280;60181;53.258;6.932;2023-02-22T13:19:46;101265.09;;;15.10;65.14
65659;BME280;60181;53.258;6.932;2023-02-22T13:23:56;101266.44;;;15.11;65.15
65659;BME280;60181;53.258;6.932;2023-02-22T13:27:50;101270.34;;;15.12;65.13
65659;BME280;60181;53.258;6.932;2023-02-22T13:32:03;101273.21;;;15.12;65.18
65659;BME280;60181;53.258;6.932;2023-02-22T13:36:08;101274.36;;;15.11;65.24
65659;BME280;60181;53.258;6.932;2023-02-22T13:48:27;101271.26;;;15.09;65.30
65659;BME280;60181;53.258;6.932;2023-02-22T13:52:14;101269.35;;;15.08;65.30
65659;BME280;60181;53.258;6.932;2023-02-22T13:56:17;101268.44;;;15.08;65.26
65659;BME280;60181;53.258;6.932;2023-02-22T14:00:22;101266.47;;;15.08;65.21
65659;BME280;60181;53.258;6.932;2023-02-22T14:16:37;101248.47;;;15.09;65.24
65659;BME280;60181;53.258;6.932;2023-02-22T14:20:41;101242.04;;;15.09;65.25
65659;BME280;60181;53.258;6.932;2023-02-22T14:24:45;101237.42;;;15.09;65.22
65659;BME280;60181;53.258;6.932;2023-02-22T14:28:52;101233.37;;;15.08;65.24
65659;BME280;60181;53.258;6.932;2023-02-22T14:32:53;101230.66;;;15.08;65.27
65659;BME280;60181;53.258;6.932;2023-02-22T14:36:58;101230.33;;;15.08;65.26
65659;BME280;60181;53.258;6.932;2023-02-22T14:41:01;101229.75;;;15.08;65.27
65659;BME280;60181;53.258;6.932;2023-02-22T14:49:10;101231.79;;;15.08;65.27
65659;BME280;60181;53.258;6.932;2023-02-22T14:57:24;101233.42;;;15.16;65.19
65659;BME280;60181;53.258;6.932;2023-02-22T15:01:22;101234.48;;;15.21;65.47
65659;BME280;60181;53.258;6.932;2023-02-22T15:05:26;101235.33;;;15.22;65.67
65659;BME280;60181;53.258;6.932;2023-02-22T15:09:29;101234.49;;;15.20;65.50
65659;BME280;60181;53.258;6.932;2023-02-22T15:13:33;101232.14;;;15.18;65.67
65659;BME280;60181;53.258;6.932;2023-02-22T15:17:37;101231.28;;;15.16;65.72
65659;BME280;60181;53.258;6.932;2023-02-22T15:21:44;101230.58;;;15.14;65.85
65659;BME280;60181;53.258;6.932;2023-02-22T15:25:46;101230.88;;;15.12;65.90
65659;BME280;60181;53.258;6.932;2023-02-22T15:29:49;101230.84;;;15.10;65.98
65659;BME280;60181;53.258;6.932;2023-02-22T15:33:53;101230.14;;;15.08;66.02
65659;BME280;60181;53.258;6.932;2023-02-22T15:38:06;101230.45;;;15.06;66.04
65659;BME280;60181;53.258;6.932;2023-02-22T15:42:08;101231.34;;;15.05;66.04
65659;BME280;60181;53.258;6.932;2023-02-22T15:46:05;101232.90;;;15.03;66.06
65659;BME280;60181;53.258;6.932;2023-02-22T15:54:13;101236.58;;;15.01;66.07
65659;BME280;60181;53.258;6.932;2023-02-22T15:58:18;101235.16;;;15.00;66.05
65659;BME280;60181;53.258;6.932;2023-02-22T16:02:38;101234.55;;;15.00;66.05
65659;BME280;60181;53.258;6.932;2023-02-22T16:06:29;101234.06;;;14.99;66.03
65659;BME280;60181;53.258;6.932;2023-02-22T16:10:29;101234.69;;;14.99;66.07
65659;BME280;60181;53.258;6.932;2023-02-22T16:14:39;101235.28;;;14.98;66.07
65659;BME280;60181;53.258;6.932;2023-02-22T16:18:37;101236.08;;;14.97;66.05
65659;BME280;60181;53.258;6.932;2023-02-22T16:22:40;101237.30;;;14.96;66.06
65659;BME280;60181;53.258;6.932;2023-02-22T16:27:00;101239.28;;;14.96;66.07
65659;BME280;60181;53.258;6.932;2023-02-22T16:30:55;101242.07;;;14.95;66.13
65659;BME280;60181;53.258;6.932;2023-02-22T16:34:52;101244.87;;;14.95;66.12
65659;BME280;60181;53.258;6.932;2023-02-22T16:38:56;101246.36;;;14.94;66.13
65659;BME280;60181;53.258;6.932;2023-02-22T16:43:02;101246.50;;;14.94;66.17
65659;BME280;60181;53.258;6.932;2023-02-22T16:47:04;101245.57;;;14.93;66.18
65659;BME280;60181;53.258;6.932;2023-02-22T16:55:13;101248.19;;;14.92;66.19
65659;BME280;60181;53.258;6.932;2023-02-22T16:59:16;101249.11;;;14.91;66.17
65659;BME280;60181;53.258;6.932;2023-02-22T17:03:20;101250.40;;;14.91;66.18
65659;BME280;60181;53.258;6.932;2023-02-22T17:07:24;101252.96;;;14.91;66.18
65659;BME280;60181;53.258;6.932;2023-02-22T17:11:28;101256.43;;;14.90;66.51
65659;BME280;60181;53.258;6.932;2023-02-22T17:15:33;101258.26;;;14.91;66.12
65659;BME280;60181;53.258;6.932;2023-02-22T17:19:36;101260.31;;;14.92;66.10
65659;BME280;60181;53.258;6.932;2023-02-22T17:23:41;101262.13;;;14.92;66.10
65659;BME280;60181;53.258;6.932;2023-02-22T17:27:44;101262.80;;;14.92;66.11
65659;BME280;60181;53.258;6.932;2023-02-22T17:31:49;101263.45;;;14.92;66.14
65659;BME280;60181;53.258;6.932;2023-02-22T17:35:53;101263.37;;;14.92;66.09
65659;BME280;60181;53.258;6.932;2023-02-22T17:39:56;101264.94;;;14.92;66.09
65659;BME280;60181;53.258;6.932;2023-02-22T17:44:01;101265.93;;;14.92;66.08
65659;BME280;60181;53.258;6.932;2023-02-22T17:48:05;101267.99;;;14.92;66.07
65659;BME280;60181;53.258;6.932;2023-02-22T17:52:08;101270.58;;;14.92;66.07
65659;BME280;60181;53.258;6.932;2023-02-22T17:56:13;101272.47;;;14.93;66.10
65659;BME280;60181;53.258;6.932;2023-02-22T18:00:17;101274.28;;;14.93;66.10
65659;BME280;60181;53.258;6.932;2023-02-22T18:04:20;101276.34;;;14.93;66.10
65659;BME280;60181;53.258;6.932;2023-02-22T18:08:28;101279.39;;;14.93;66.12
65659;BME280;60181;53.258;6.932;2023-02-22T18:12:28;101280.88;;;14.93;66.12
65659;BME280;60181;53.258;6.932;2023-02-22T18:16:32;101281.64;;;14.93;66.15
65659;BME280;60181;53.258;6.932;2023-02-22T18:20:39;101282.79;;;14.93;66.17
65659;BME280;60181;53.258;6.932;2023-02-22T18:24:40;101284.78;;;14.93;66.17
65659;BME280;60181;53.258;6.932;2023-02-22T18:28:44;101287.42;;;14.93;66.17
65659;BME280;60181;53.258;6.932;2023-02-22T18:32:48;101289.40;;;14.93;66.20
65659;BME280;60181;53.258;6.932;2023-02-22T18:36:53;101290.88;;;14.93;66.22
65659;BME280;60181;53.258;6.932;2023-02-22T18:41:03;101293.19;;;14.93;66.22
65659;BME280;60181;53.258;6.932;2023-02-22T18:45:00;101294.56;;;14.93;66.21
65659;BME280;60181;53.258;6.932;2023-02-22T18:49:04;101296.00;;;14.93;66.22
65659;BME280;60181;53.258;6.932;2023-02-22T18:53:08;101296.49;;;14.93;66.24
65659;BME280;60181;53.258;6.932;2023-02-22T18:57:12;101296.71;;;14.93;66.23
65659;BME280;60181;53.258;6.932;2023-02-22T19:01:17;101297.04;;;14.93;66.27
65659;BME280;60181;53.258;6.932;2023-02-22T19:05:20;101296.88;;;14.93;66.27
65659;BME280;60181;53.258;6.932;2023-02-22T19:09:24;101296.30;;;14.93;66.24
65659;BME280;60181;53.258;6.932;2023-02-22T19:13:29;101295.97;;;14.93;66.28
65659;BME280;60181;53.258;6.932;2023-02-22T19:17:33;101295.14;;;14.93;66.28
65659;BME280;60181;53.258;6.932;2023-02-22T19:21:36;101294.41;;;14.93;66.25
65659;BME280;60181;53.258;6.932;2023-02-22T19:25:40;101294.24;;;14.93;66.29
65659;BME280;60181;53.258;6.932;2023-02-22T19:29:44;101292.76;;;14.93;66.28
65659;BME280;60181;53.258;6.932;2023-02-22T19:33:48;101292.10;;;14.93;66.28
65659;BME280;60181;53.258;6.932;2023-02-22T19:37:53;101292.67;;;14.92;66.29
65659;BME280;60181;53.258;6.932;2023-02-22T19:41:56;101292.56;;;14.92;66.29
65659;BME280;60181;53.258;6.932;2023-02-22T19:46:04;101292.89;;;14.92;66.27
65659;BME280;60181;53.258;6.932;2023-02-22T19:50:05;101293.23;;;14.92;66.32
65659;BME280;60181;53.258;6.932;2023-02-22T19:54:10;101292.99;;;14.92;66.29
65659;BME280;60181;53.258;6.932;2023-02-22T19:58:12;101292.83;;;14.91;66.58
65659;BME280;60181;53.258;6.932;2023-02-22T20:02:16;101292.83;;;14.91;66.59
65659;BME280;60181;53.258;6.932;2023-02-22T20:06:21;101290.84;;;14.91;66.72
65659;BME280;60181;53.258;6.932;2023-02-22T20:10:24;101290.33;;;14.90;66.82
65659;BME280;60181;53.258;6.932;2023-02-22T20:14:28;101288.65;;;14.89;66.83
65659;BME280;60181;53.258;6.932;2023-02-22T20:18:32;101287.47;;;14.89;66.74
65659;BME280;60181;53.258;6.932;2023-02-22T20:22:36;101286.41;;;14.88;66.71
65659;BME280;60181;53.258;6.932;2023-02-22T20:26:41;101287.14;;;14.89;66.57
65659;BME280;60181;53.258;6.932;2023-02-22T20:30:44;101288.65;;;14.89;66.55
65659;BME280;60181;53.258;6.932;2023-02-22T20:34:48;101289.92;;;15.00;67.47
65659;BME280;60181;53.258;6.932;2023-02-22T20:38:53;101290.23;;;15.24;66.34
65659;BME280;60181;53.258;6.932;2023-02-22T20:42:56;101293.62;;;15.38;66.85
65659;BME280;60181;53.258;6.932;2023-02-22T20:47:00;101296.36;;;15.39;67.60
65659;BME280;60181;53.258;6.932;2023-02-22T20:51:05;101298.03;;;15.36;67.32
65659;BME280;60181;53.258;6.932;2023-02-22T20:55:08;101298.78;;;15.32;67.38
65659;BME280;60181;53.258;6.932;2023-02-22T20:59:13;101299.73;;;15.28;67.49
65659;BME280;60181;53.258;6.932;2023-02-22T21:03:16;101299.24;;;15.24;67.52
65659;BME280;60181;53.258;6.932;2023-02-22T21:07:20;101298.52;;;15.21;67.52
65659;BME280;60181;53.258;6.932;2023-02-22T21:11:25;101297.50;;;15.18;67.45
65659;BME280;60181;53.258;6.932;2023-02-22T21:15:28;101297.43;;;15.15;67.40
65659;BME280;60181;53.258;6.932;2023-02-22T21:19:32;101298.38;;;15.13;67.35
65659;BME280;60181;53.258;6.932;2023-02-22T21:23:36;101299.28;;;15.11;67.37
65659;BME280;60181;53.258;6.932;2023-02-22T21:27:40;101299.34;;;15.10;67.35
65659;BME280;60181;53.258;6.932;2023-02-22T21:31:44;101297.81;;;15.09;67.32
65659;BME280;60181;53.258;6.932;2023-02-22T21:35:48;101297.09;;;15.09;67.43
65659;BME280;60181;53.258;6.932;2023-02-22T21:39:52;101296.97;;;15.11;65.96
65659;BME280;60181;53.258;6.932;2023-02-22T21:43:56;101297.02;;;15.05;66.46
65659;BME280;60181;53.258;6.932;2023-02-22T21:48:00;101297.19;;;14.96;66.51
65659;BME280;60181;53.258;6.932;2023-02-22T21:52:04;101298.28;;;14.88;66.46
65659;BME280;60181;53.258;6.932;2023-02-22T21:56:08;101299.07;;;14.81;66.15
65659;BME280;60181;53.258;6.932;2023-02-22T22:00:13;101301.20;;;14.76;65.91
65659;BME280;60181;53.258;6.932;2023-02-22T22:04:17;101302.17;;;14.70;65.78
65659;BME280;60181;53.258;6.932;2023-02-22T22:08:20;101303.53;;;14.65;65.56
65659;BME280;60181;53.258;6.932;2023-02-22T22:12:24;101304.35;;;14.62;65.48
65659;BME280;60181;53.258;6.932;2023-02-22T22:16:28;101304.86;;;14.58;65.35
65659;BME280;60181;53.258;6.932;2023-02-22T22:20:32;101305.45;;;14.55;65.13
65659;BME280;60181;53.258;6.932;2023-02-22T22:24:36;101304.16;;;14.52;65.09
65659;BME280;60181;53.258;6.932;2023-02-22T22:28:41;101304.03;;;14.49;65.10
65659;BME280;60181;53.258;6.932;2023-02-22T22:32:44;101304.72;;;14.47;65.06
65659;BME280;60181;53.258;6.932;2023-02-22T22:36:48;101305.97;;;14.44;64.91
65659;BME280;60181;53.258;6.932;2023-02-22T22:40:52;101307.65;;;14.42;64.69
65659;BME280;60181;53.258;6.932;2023-02-22T22:44:56;101309.86;;;14.40;64.68
65659;BME280;60181;53.258;6.932;2023-02-22T22:49:00;101311.83;;;14.39;64.73
65659;BME280;60181;53.258;6.932;2023-02-22T22:53:04;101313.78;;;14.38;64.60
65659;BME280;60181;53.258;6.932;2023-02-22T22:57:08;101316.23;;;14.37;64.32
65659;BME280;60181;53.258;6.932;2023-02-22T23:01:13;101318.73;;;14.35;64.42
65659;BME280;60181;53.258;6.932;2023-02-22T23:05:16;101321.10;;;14.34;64.31